sensor_id;sensor_type;location;lat;lon;timestamp;temperature;humidity
40538;DHT22;27925;41.874;12.526;2023-05-07T00:00:38;19.10;87.80
40538;DHT22;27925;41.874;12.526;2023-05-07T00:03:04;19.20;88.00
40538;DHT22;27925;41.874;12.526;2023-05-07T00:05:29;19.20;88.00
40538;DHT22;27925;41.874;12.526;2023-05-07T00:07:55;19.20;88.00
40538;DHT22;27925;41.874;12.526;2023-05-07T00:10:21;19.20;88.20
40538;DHT22;27925;41.874;12.526;2023-05-07T00:12:47;19.10;88.30
40538;DHT22;27925;41.874;12.526;2023-05-07T00:15:12;19.10;88.30
40538;DHT22;27925;41.874;12.526;2023-05-07T00:17:38;19.00;88.40
40538;DHT22;27925;41.874;12.526;2023-05-07T00:20:04;19.00;88.40
40538;DHT22;27925;41.874;12.526;2023-05-07T00:22:31;19.00;88.50
40538;DHT22;27925;41.874;12.526;2023-05-07T00:24:58;19.00;88.60
40538;DHT22;27925;41.874;12.526;2023-05-07T00:27:24;19.00;88.90
40538;DHT22;27925;41.874;12.526;2023-05-07T00:29:50;18.90;88.80
40538;DHT22;27925;41.874;12.526;2023-05-07T00:32:16;18.90;89.20
40538;DHT22;27925;41.874;12.526;2023-05-07T00:34:43;18.90;89.30
40538;DHT22;27925;41.874;12.526;2023-05-07T00:37:09;18.90;89.50
40538;DHT22;27925;41.874;12.526;2023-05-07T00:39:35;18.90;89.50
40538;DHT22;27925;41.874;12.526;2023-05-07T00:42:01;18.90;89.20
40538;DHT22;27925;41.874;12.526;2023-05-07T00:44:26;18.90;89.40
40538;DHT22;27925;41.874;12.526;2023-05-07T00:46:54;18.90;89.50
40538;DHT22;27925;41.874;12.526;2023-05-07T00:49:20;18.90;89.60
40538;DHT22;27925;41.874;12.526;2023-05-07T00:51:46;18.90;89.80
40538;DHT22;27925;41.874;12.526;2023-05-07T00:54:13;18.90;89.80
40538;DHT22;27925;41.874;12.526;2023-05-07T00:56:39;18.90;90.00
40538;DHT22;27925;41.874;12.526;2023-05-07T00:59:06;18.90;90.00
40538;DHT22;27925;41.874;12.526;2023-05-07T01:01:32;18.90;90.10
40538;DHT22;27925;41.874;12.526;2023-05-07T01:03:57;18.90;90.10
40538;DHT22;27925;41.874;12.526;2023-05-07T01:06:24;18.90;90.10
40538;DHT22;27925;41.874;12.526;2023-05-07T01:08:51;18.90;90.10
40538;DHT22;27925;41.874;12.526;2023-05-07T01:11:18;18.90;90.20
40538;DHT22;27925;41.874;12.526;2023-05-07T01:13:47;18.80;90.20
40538;DHT22;27925;41.874;12.526;2023-05-07T01:16:14;18.80;90.30
40538;DHT22;27925;41.874;12.526;2023-05-07T01:18:39;18.80;90.40
40538;DHT22;27925;41.874;12.526;2023-05-07T01:21:06;18.80;90.50
40538;DHT22;27925;41.874;12.526;2023-05-07T01:23:33;18.80;90.40
40538;DHT22;27925;41.874;12.526;2023-05-07T01:25:59;18.80;90.50
40538;DHT22;27925;41.874;12.526;2023-05-07T01:28:25;18.70;90.50
40538;DHT22;27925;41.874;12.526;2023-05-07T01:30:54;18.70;90.70
40538;DHT22;27925;41.874;12.526;2023-05-07T01:33:21;18.60;90.80
40538;DHT22;27925;41.874;12.526;2023-05-07T01:35:51;18.60;90.80
40538;DHT22;27925;41.874;12.526;2023-05-07T01:38:19;18.60;90.80
40538;DHT22;27925;41.874;12.526;2023-05-07T01:40:47;18.60;90.90
40538;DHT22;27925;41.874;12.526;2023-05-07T01:43:13;18.60;91.00
40538;DHT22;27925;41.874;12.526;2023-05-07T01:45:39;18.50;91.10
40538;DHT22;27925;41.874;12.526;2023-05-07T01:48:10;18.50;91.10
40538;DHT22;27925;41.874;12.526;2023-05-07T01:50:37;18.60;91.20
40538;DHT22;27925;41.874;12.526;2023-05-07T01:53:02;18.50;91.10
40538;DHT22;27925;41.874;12.526;2023-05-07T01:55:28;18.50;91.20
40538;DHT22;27925;41.874;12.526;2023-05-07T01:57:54;18.50;91.30
40538;DHT22;27925;41.874;12.526;2023-05-07T02:00:20;18.50;91.20
40538;DHT22;27925;41.874;12.526;2023-05-07T02:02:45;18.50;91.20
40538;DHT22;27925;41.874;12.526;2023-05-07T02:05:11;18.50;91.10
40538;DHT22;27925;41.874;12.526;2023-05-07T02:07:37;18.50;90.90
40538;DHT22;27925;41.874;12.526;2023-05-07T02:10:03;18.50;91.00
40538;DHT22;27925;41.874;12.526;2023-05-07T02:12:29;18.60;90.90
40538;DHT22;27925;41.874;12.526;2023-05-07T02:14:54;18.50;90.70
40538;DHT22;27925;41.874;12.526;2023-05-07T02:17:20;18.50;90.90
40538;DHT22;27925;41.874;12.526;2023-05-07T02:19:46;18.50;91.00
40538;DHT22;27925;41.874;12.526;2023-05-07T02:22:11;18.40;91.00
40538;DHT22;27925;41.874;12.526;2023-05-07T02:24:37;18.40;91.00
40538;DHT22;27925;41.874;12.526;2023-05-07T02:27:03;18.30;91.00
40538;DHT22;27925;41.874;12.526;2023-05-07T02:29:29;18.30;91.00
40538;DHT22;27925;41.874;12.526;2023-05-07T02:31:55;18.20;90.80
40538;DHT22;27925;41.874;12.526;2023-05-07T02:34:21;18.10;90.60
40538;DHT22;27925;41.874;12.526;2023-05-07T02:36:46;18.10;90.40
40538;DHT22;27925;41.874;12.526;2023-05-07T02:39:13;18.10;90.10
40538;DHT22;27925;41.874;12.526;2023-05-07T02:41:39;18.10;89.70
40538;DHT22;27925;41.874;12.526;2023-05-07T02:44:05;18.00;89.40
40538;DHT22;27925;41.874;12.526;2023-05-07T02:46:30;18.10;89.00
40538;DHT22;27925;41.874;12.526;2023-05-07T02:48:56;18.00;88.60
40538;DHT22;27925;41.874;12.526;2023-05-07T02:51:22;18.00;88.60
40538;DHT22;27925;41.874;12.526;2023-05-07T02:53:48;18.00;87.10
40538;DHT22;27925;41.874;12.526;2023-05-07T02:56:14;17.90;86.00
40538;DHT22;27925;41.874;12.526;2023-05-07T02:58:40;17.90;86.10
40538;DHT22;27925;41.874;12.526;2023-05-07T03:01:08;17.80;85.80
40538;DHT22;27925;41.874;12.526;2023-05-07T03:03:33;17.80;85.40
40538;DHT22;27925;41.874;12.526;2023-05-07T03:05:59;17.70;85.30
40538;DHT22;27925;41.874;12.526;2023-05-07T03:08:25;17.70;84.80
40538;DHT22;27925;41.874;12.526;2023-05-07T03:10:50;17.70;84.40
40538;DHT22;27925;41.874;12.526;2023-05-07T03:13:16;17.60;84.20
40538;DHT22;27925;41.874;12.526;2023-05-07T03:15:42;17.60;84.20
40538;DHT22;27925;41.874;12.526;2023-05-07T03:18:08;17.60;83.80
40538;DHT22;27925;41.874;12.526;2023-05-07T03:20:34;17.50;84.10
40538;DHT22;27925;41.874;12.526;2023-05-07T03:23:00;17.60;83.60
40538;DHT22;27925;41.874;12.526;2023-05-07T03:25:25;17.50;83.20
40538;DHT22;27925;41.874;12.526;2023-05-07T03:27:51;17.50;82.90
40538;DHT22;27925;41.874;12.526;2023-05-07T11:58:22;26.20;61.60
40538;DHT22;27925;41.874;12.526;2023-05-07T12:00:49;26.20;61.90
40538;DHT22;27925;41.874;12.526;2023-05-07T12:03:15;26.20;61.30
40538;DHT22;27925;41.874;12.526;2023-05-07T12:05:40;26.20;61.00
40538;DHT22;27925;41.874;12.526;2023-05-07T12:08:07;26.20;60.60
40538;DHT22;27925;41.874;12.526;2023-05-07T12:10:33;26.20;61.20
40538;DHT22;27925;41.874;12.526;2023-05-07T12:12:59;26.20;60.90
40538;DHT22;27925;41.874;12.526;2023-05-07T12:15:24;26.20;60.80
40538;DHT22;27925;41.874;12.526;2023-05-07T12:17:50;26.20;60.90
40538;DHT22;27925;41.874;12.526;2023-05-07T12:20:18;26.20;60.50
40538;DHT22;27925;41.874;12.526;2023-05-07T12:22:44;26.20;60.30
40538;DHT22;27925;41.874;12.526;2023-05-07T12:25:10;26.20;60.20
40538;DHT22;27925;41.874;12.526;2023-05-07T12:27:37;26.30;61.20
40538;DHT22;27925;41.874;12.526;2023-05-07T12:30:04;26.40;61.40
40538;DHT22;27925;41.874;12.526;2023-05-07T12:32:31;26.40;60.30
40538;DHT22;27925;41.874;12.526;2023-05-07T12:35:01;26.30;60.10
40538;DHT22;27925;41.874;12.526;2023-05-07T12:37:27;26.30;60.10
40538;DHT22;27925;41.874;12.526;2023-05-07T12:42:35;26.30;60.50
40538;DHT22;27925;41.874;12.526;2023-05-07T12:45:08;26.30;60.40
40538;DHT22;27925;41.874;12.526;2023-05-07T12:47:34;26.30;60.40
40538;DHT22;27925;41.874;12.526;2023-05-07T12:49:59;26.30;60.00
40538;DHT22;27925;41.874;12.526;2023-05-07T12:52:26;26.30;60.40
40538;DHT22;27925;41.874;12.526;2023-05-07T12:54:51;26.30;61.00
40538;DHT22;27925;41.874;12.526;2023-05-07T12:57:19;26.40;60.80
40538;DHT22;27925;41.874;12.526;2023-05-07T12:59:46;26.40;61.10
40538;DHT22;27925;41.874;12.526;2023-05-07T13:02:12;26.50;60.90
40538;DHT22;27925;41.874;12.526;2023-05-07T13:04:37;26.50;60.50
40538;DHT22;27925;41.874;12.526;2023-05-07T13:07:03;26.50;60.30
40538;DHT22;27925;41.874;12.526;2023-05-07T13:09:29;26.50;60.70
40538;DHT22;27925;41.874;12.526;2023-05-07T13:11:55;26.50;60.60
40538;DHT22;27925;41.874;12.526;2023-05-07T13:14:20;26.50;60.20
40538;DHT22;27925;41.874;12.526;2023-05-07T13:16:49;26.50;60.30
40538;DHT22;27925;41.874;12.526;2023-05-07T13:19:15;26.50;60.10
40538;DHT22;27925;41.874;12.526;2023-05-07T13:21:40;26.40;60.60
40538;DHT22;27925;41.874;12.526;2023-05-07T13:24:06;26.50;61.40
40538;DHT22;27925;41.874;12.526;2023-05-07T13:26:32;26.60;59.90
40538;DHT22;27925;41.874;12.526;2023-05-07T13:28:58;26.60;59.30
40538;DHT22;27925;41.874;12.526;2023-05-07T13:31:24;26.60;58.90
40538;DHT22;27925;41.874;12.526;2023-05-07T13:33:50;26.60;59.10
40538;DHT22;27925;41.874;12.526;2023-05-07T13:36:16;26.70;59.60
40538;DHT22;27925;41.874;12.526;2023-05-07T13:38:41;26.70;59.50
40538;DHT22;27925;41.874;12.526;2023-05-07T13:41:07;26.60;59.70
40538;DHT22;27925;41.874;12.526;2023-05-07T13:43:33;26.70;60.20
40538;DHT22;27925;41.874;12.526;2023-05-07T13:45:59;26.70;60.30
40538;DHT22;27925;41.874;12.526;2023-05-07T13:48:25;26.80;59.80
40538;DHT22;27925;41.874;12.526;2023-05-07T13:50:51;26.70;59.60
40538;DHT22;27925;41.874;12.526;2023-05-07T13:53:17;26.60;59.30
40538;DHT22;27925;41.874;12.526;2023-05-07T13:55:44;26.60;59.60
40538;DHT22;27925;41.874;12.526;2023-05-07T13:58:10;26.60;60.10
40538;DHT22;27925;41.874;12.526;2023-05-07T14:00:36;26.60;60.30
40538;DHT22;27925;41.874;12.526;2023-05-07T14:03:03;26.70;60.10
40538;DHT22;27925;41.874;12.526;2023-05-07T14:05:29;26.60;59.60
40538;DHT22;27925;41.874;12.526;2023-05-07T14:07:57;26.60;59.20
40538;DHT22;27925;41.874;12.526;2023-05-07T14:10:22;26.60;59.70
40538;DHT22;27925;41.874;12.526;2023-05-07T14:12:48;26.60;59.30
40538;DHT22;27925;41.874;12.526;2023-05-07T14:15:14;26.60;59.90
40538;DHT22;27925;41.874;12.526;2023-05-07T14:17:40;26.50;59.80
40538;DHT22;27925;41.874;12.526;2023-05-07T14:20:06;26.40;60.30
40538;DHT22;27925;41.874;12.526;2023-05-07T14:22:32;26.40;60.60
40538;DHT22;27925;41.874;12.526;2023-05-07T14:24:58;26.40;60.90
40538;DHT22;27925;41.874;12.526;2023-05-07T14:27:23;26.40;61.10
40538;DHT22;27925;41.874;12.526;2023-05-07T14:29:49;26.40;60.70
40538;DHT22;27925;41.874;12.526;2023-05-07T14:32:19;26.50;60.80
40538;DHT22;27925;41.874;12.526;2023-05-07T14:34:45;26.50;61.00
40538;DHT22;27925;41.874;12.526;2023-05-07T14:37:12;26.50;60.90
40538;DHT22;27925;41.874;12.526;2023-05-07T14:39:38;26.50;60.90
40538;DHT22;27925;41.874;12.526;2023-05-07T14:42:04;26.40;60.90
40538;DHT22;27925;41.874;12.526;2023-05-07T14:44:29;26.50;60.90
40538;DHT22;27925;41.874;12.526;2023-05-07T14:46:56;26.50;61.00
40538;DHT22;27925;41.874;12.526;2023-05-07T14:49:22;26.40;61.00
40538;DHT22;27925;41.874;12.526;2023-05-07T14:51:48;26.40;60.50
40538;DHT22;27925;41.874;12.526;2023-05-07T14:54:14;26.40;60.50
40538;DHT22;27925;41.874;12.526;2023-05-07T14:56:40;26.30;60.70
40538;DHT22;27925;41.874;12.526;2023-05-07T14:59:07;26.40;60.90
40538;DHT22;27925;41.874;12.526;2023-05-07T15:01:34;26.30;60.40
40538;DHT22;27925;41.874;12.526;2023-05-07T15:04:00;26.30;60.80
40538;DHT22;27925;41.874;12.526;2023-05-07T15:06:26;26.30;60.70
40538;DHT22;27925;41.874;12.526;2023-05-07T15:08:52;26.30;60.20
40538;DHT22;27925;41.874;12.526;2023-05-07T15:11:18;26.20;60.20
40538;DHT22;27925;41.874;12.526;2023-05-07T15:13:43;26.20;60.50
40538;DHT22;27925;41.874;12.526;2023-05-07T15:16:09;26.20;60.40
40538;DHT22;27925;41.874;12.526;2023-05-07T15:18:35;26.20;60.30
40538;DHT22;27925;41.874;12.526;2023-05-07T15:21:01;26.30;60.40
40538;DHT22;27925;41.874;12.526;2023-05-07T15:23:26;26.30;60.40
40538;DHT22;27925;41.874;12.526;2023-05-07T15:25:52;26.30;60.20
40538;DHT22;27925;41.874;12.526;2023-05-07T15:28:18;26.30;60.60
40538;DHT22;27925;41.874;12.526;2023-05-07T15:30:44;26.20;59.70
40538;DHT22;27925;41.874;12.526;2023-05-07T15:33:10;26.20;60.00
40538;DHT22;27925;41.874;12.526;2023-05-07T15:35:36;26.20;60.00
40538;DHT22;27925;41.874;12.526;2023-05-07T15:38:02;26.10;59.90
40538;DHT22;27925;41.874;12.526;2023-05-07T15:40:28;26.10;60.00
40538;DHT22;27925;41.874;12.526;2023-05-07T15:42:55;26.10;59.60
40538;DHT22;27925;41.874;12.526;2023-05-07T15:45:22;26.00;59.50
40538;DHT22;27925;41.874;12.526;2023-05-07T15:47:47;26.00;59.20
40538;DHT22;27925;41.874;12.526;2023-05-07T15:50:13;25.90;58.70
40538;DHT22;27925;41.874;12.526;2023-05-07T15:52:39;25.90;58.70
40538;DHT22;27925;41.874;12.526;2023-05-07T15:55:06;25.80;58.90
40538;DHT22;27925;41.874;12.526;2023-05-07T15:57:33;25.70;58.70
40538;DHT22;27925;41.874;12.526;2023-05-07T15:59:59;25.70;59.20
40538;DHT22;27925;41.874;12.526;2023-05-07T16:02:25;25.70;58.70
40538;DHT22;27925;41.874;12.526;2023-05-07T16:04:51;25.70;58.40
40538;DHT22;27925;41.874;12.526;2023-05-07T16:07:16;25.70;58.00
40538;DHT22;27925;41.874;12.526;2023-05-07T16:09:44;25.60;57.80
40538;DHT22;27925;41.874;12.526;2023-05-07T16:12:10;25.60;57.30
40538;DHT22;27925;41.874;12.526;2023-05-07T16:14:36;25.50;57.00
40538;DHT22;27925;41.874;12.526;2023-05-07T16:17:02;25.50;56.70
40538;DHT22;27925;41.874;12.526;2023-05-07T16:19:27;25.50;56.40
40538;DHT22;27925;41.874;12.526;2023-05-07T16:21:53;25.50;56.40
40538;DHT22;27925;41.874;12.526;2023-05-07T16:24:19;25.40;56.80
40538;DHT22;27925;41.874;12.526;2023-05-07T16:26:45;25.40;56.40
40538;DHT22;27925;41.874;12.526;2023-05-07T16:29:11;25.40;56.20
40538;DHT22;27925;41.874;12.526;2023-05-07T16:31:36;25.30;56.30
40538;DHT22;27925;41.874;12.526;2023-05-07T16:34:02;25.30;55.70
40538;DHT22;27925;41.874;12.526;2023-05-07T16:36:28;25.20;55.50
40538;DHT22;27925;41.874;12.526;2023-05-07T16:38:54;25.10;55.40
40538;DHT22;27925;41.874;12.526;2023-05-07T16:41:20;25.00;55.10
40538;DHT22;27925;41.874;12.526;2023-05-07T16:43:46;24.80;55.50
40538;DHT22;27925;41.874;12.526;2023-05-07T16:46:12;24.70;56.30
40538;DHT22;27925;41.874;12.526;2023-05-07T16:48:38;24.60;56.60
40538;DHT22;27925;41.874;12.526;2023-05-07T16:51:04;24.40;56.50
40538;DHT22;27925;41.874;12.526;2023-05-07T16:53:31;24.30;56.30
40538;DHT22;27925;41.874;12.526;2023-05-07T16:55:57;24.20;56.40
40538;DHT22;27925;41.874;12.526;2023-05-07T16:58:23;24.20;56.30
40538;DHT22;27925;41.874;12.526;2023-05-07T17:00:49;24.20;56.30
40538;DHT22;27925;41.874;12.526;2023-05-07T17:03:14;24.10;55.90
40538;DHT22;27925;41.874;12.526;2023-05-07T17:05:40;24.10;55.90
40538;DHT22;27925;41.874;12.526;2023-05-07T17:08:06;24.10;56.30
40538;DHT22;27925;41.874;12.526;2023-05-07T17:10:32;24.00;56.00
40538;DHT22;27925;41.874;12.526;2023-05-07T17:12:57;24.00;56.20
40538;DHT22;27925;41.874;12.526;2023-05-07T17:15:23;23.90;56.00
40538;DHT22;27925;41.874;12.526;2023-05-07T17:17:49;23.70;56.50
40538;DHT22;27925;41.874;12.526;2023-05-07T17:20:15;23.70;56.70
40538;DHT22;27925;41.874;12.526;2023-05-07T17:22:40;23.70;56.90
40538;DHT22;27925;41.874;12.526;2023-05-07T17:25:06;23.60;56.90
40538;DHT22;27925;41.874;12.526;2023-05-07T17:27:33;23.50;56.70
40538;DHT22;27925;41.874;12.526;2023-05-07T17:29:59;23.50;57.10
40538;DHT22;27925;41.874;12.526;2023-05-07T17:32:25;23.40;57.20
40538;DHT22;27925;41.874;12.526;2023-05-07T17:34:51;23.40;57.00
40538;DHT22;27925;41.874;12.526;2023-05-07T17:37:17;23.30;57.10
40538;DHT22;27925;41.874;12.526;2023-05-07T17:39:43;23.30;57.40
40538;DHT22;27925;41.874;12.526;2023-05-07T17:42:08;23.30;57.50
40538;DHT22;27925;41.874;12.526;2023-05-07T17:44:34;23.30;57.50
40538;DHT22;27925;41.874;12.526;2023-05-07T17:47:00;23.30;57.60
40538;DHT22;27925;41.874;12.526;2023-05-07T17:49:26;23.40;58.60
40538;DHT22;27925;41.874;12.526;2023-05-07T17:51:52;23.30;58.20
40538;DHT22;27925;41.874;12.526;2023-05-07T17:54:18;23.30;58.70
40538;DHT22;27925;41.874;12.526;2023-05-07T21:22:45;21.10;67.10
40538;DHT22;27925;41.874;12.526;2023-05-07T21:25:10;21.10;66.80
40538;DHT22;27925;41.874;12.526;2023-05-07T21:27:36;21.10;67.20
40538;DHT22;27925;41.874;12.526;2023-05-07T21:30:01;21.00;67.50
40538;DHT22;27925;41.874;12.526;2023-05-07T21:32:30;21.00;67.60
40538;DHT22;27925;41.874;12.526;2023-05-07T21:34:55;21.00;68.30
40538;DHT22;27925;41.874;12.526;2023-05-07T21:37:21;21.00;68.50
40538;DHT22;27925;41.874;12.526;2023-05-07T21:39:47;21.00;68.60
40538;DHT22;27925;41.874;12.526;2023-05-07T21:42:12;20.90;68.60
40538;DHT22;27925;41.874;12.526;2023-05-07T21:44:38;20.80;68.60
40538;DHT22;27925;41.874;12.526;2023-05-07T21:47:03;20.80;68.70
40538;DHT22;27925;41.874;12.526;2023-05-07T21:49:29;20.80;68.80
40538;DHT22;27925;41.874;12.526;2023-05-07T21:51:55;20.90;69.00
40538;DHT22;27925;41.874;12.526;2023-05-07T21:54:21;20.90;68.80
40538;DHT22;27925;41.874;12.526;2023-05-07T21:56:46;21.00;68.90
40538;DHT22;27925;41.874;12.526;2023-05-07T21:59:12;21.00;68.70
40538;DHT22;27925;41.874;12.526;2023-05-07T22:01:38;21.00;68.70
40538;DHT22;27925;41.874;12.526;2023-05-07T22:04:04;21.00;68.70
40538;DHT22;27925;41.874;12.526;2023-05-07T22:06:29;21.00;68.70
40538;DHT22;27925;41.874;12.526;2023-05-07T22:08:55;21.10;68.60
40538;DHT22;27925;41.874;12.526;2023-05-07T22:11:21;21.10;68.40
40538;DHT22;27925;41.874;12.526;2023-05-07T22:13:46;21.00;68.00
40538;DHT22;27925;41.874;12.526;2023-05-07T22:16:12;21.00;67.10
40538;DHT22;27925;41.874;12.526;2023-05-07T22:18:38;21.00;66.50
40538;DHT22;27925;41.874;12.526;2023-05-07T22:21:04;20.90;66.20
40538;DHT22;27925;41.874;12.526;2023-05-07T22:23:29;20.80;65.70
40538;DHT22;27925;41.874;12.526;2023-05-07T22:25:55;20.80;65.40
40538;DHT22;27925;41.874;12.526;2023-05-07T22:28:21;20.70;65.10
40538;DHT22;27925;41.874;12.526;2023-05-07T22:30:46;20.70;65.00
40538;DHT22;27925;41.874;12.526;2023-05-07T22:33:12;20.70;65.00
40538;DHT22;27925;41.874;12.526;2023-05-07T22:35:38;20.70;64.90
40538;DHT22;27925;41.874;12.526;2023-05-07T22:38:03;20.70;65.00
40538;DHT22;27925;41.874;12.526;2023-05-07T22:40:29;20.70;65.20
40538;DHT22;27925;41.874;12.526;2023-05-07T22:42:55;20.70;65.10
40538;DHT22;27925;41.874;12.526;2023-05-07T22:45:20;20.60;65.10
40538;DHT22;27925;41.874;12.526;2023-05-07T22:47:46;20.70;65.40
40538;DHT22;27925;41.874;12.526;2023-05-07T22:50:12;20.60;65.20
40538;DHT22;27925;41.874;12.526;2023-05-07T22:52:38;20.60;65.30
40538;DHT22;27925;41.874;12.526;2023-05-07T22:55:04;20.60;65.40
40538;DHT22;27925;41.874;12.526;2023-05-07T22:57:30;20.60;66.00
40538;DHT22;27925;41.874;12.526;2023-05-07T22:59:56;20.60;66.20
40538;DHT22;27925;41.874;12.526;2023-05-07T23:02:21;20.60;66.60
40538;DHT22;27925;41.874;12.526;2023-05-07T23:04:47;20.50;67.10
40538;DHT22;27925;41.874;12.526;2023-05-07T23:07:13;20.50;67.40
40538;DHT22;27925;41.874;12.526;2023-05-07T23:09:39;20.50;67.50
40538;DHT22;27925;41.874;12.526;2023-05-07T23:12:05;20.50;68.30
40538;DHT22;27925;41.874;12.526;2023-05-07T23:14:30;20.50;68.20
40538;DHT22;27925;41.874;12.526;2023-05-07T23:16:56;20.50;68.30
40538;DHT22;27925;41.874;12.526;2023-05-07T23:19:22;20.50;68.50
40538;DHT22;27925;41.874;12.526;2023-05-07T23:21:47;20.50;68.50
40538;DHT22;27925;41.874;12.526;2023-05-07T23:24:13;20.50;68.60
40538;DHT22;27925;41.874;12.526;2023-05-07T23:26:39;20.50;68.70
40538;DHT22;27925;41.874;12.526;2023-05-07T23:29:05;20.50;69.10
40538;DHT22;27925;41.874;12.526;2023-05-07T23:31:30;20.50;69.20
40538;DHT22;27925;41.874;12.526;2023-05-07T23:33:56;20.40;69.40
40538;DHT22;27925;41.874;12.526;2023-05-07T23:36:22;20.30;69.60
40538;DHT22;27925;41.874;12.526;2023-05-07T23:38:47;20.30;69.70
40538;DHT22;27925;41.874;12.526;2023-05-07T23:41:13;20.20;70.10
40538;DHT22;27925;41.874;12.526;2023-05-07T23:43:39;20.20;70.40
40538;DHT22;27925;41.874;12.526;2023-05-07T23:46:05;20.10;70.30
40538;DHT22;27925;41.874;12.526;2023-05-07T23:48:30;20.10;70.70
40538;DHT22;27925;41.874;12.526;2023-05-07T23:50:56;20.20;70.90
40538;DHT22;27925;41.874;12.526;2023-05-07T23:53:22;20.20;71.10
40538;DHT22;27925;41.874;12.526;2023-05-07T23:55:47;20.10;71.20
40538;DHT22;27925;41.874;12.526;2023-05-07T23:58:13;20.10;71.50
